createdAt,value
2019-03-22T00:01:11.889Z,100940.07
2019-03-22T00:03:41.848Z,100939.80
2019-03-22T00:06:11.886Z,100942.92
2019-03-22T00:08:41.940Z,100943.14
2019-03-22T00:11:11.907Z,100945.25
2019-03-22T00:13:41.856Z,100941.78
2019-03-22T00:16:11.889Z,100947.22
2019-03-22T00:18:41.951Z,100948.61
2019-03-22T00:21:11.870Z,100947.42
2019-03-22T00:23:41.795Z,100949.81
2019-03-22T00:26:12.055Z,100951.89
2019-03-22T00:28:42.107Z,100955.77
2019-03-22T00:31:12.113Z,100956.16
2019-03-22T00:33:42.224Z,100952.06
2019-03-22T00:36:12.264Z,100955.06
2019-03-22T00:38:42.169Z,100958.72
2019-03-22T00:41:12.399Z,100960.38
2019-03-22T00:43:42.520Z,100959.55
2019-03-22T00:46:12.442Z,100964.06
2019-03-22T00:48:42.397Z,100961.88
2019-03-22T00:51:12.418Z,100961.92
2019-03-22T00:53:42.616Z,100968.55
2019-03-22T00:56:12.572Z,100960.00
2019-03-22T00:58:42.483Z,100955.60
2019-03-22T01:01:12.509Z,100957.45
2019-03-22T01:03:42.629Z,100956.47
2019-03-22T01:06:12.511Z,100959.06
2019-03-22T01:08:42.420Z,100951.66
2019-03-22T01:11:12.482Z,100955.06
2019-03-22T01:13:42.518Z,100950.70
2019-03-22T01:16:12.442Z,100950.29
2019-03-22T01:18:42.501Z,100949.84
2019-03-22T01:21:12.409Z,100953.72
2019-03-22T01:23:42.323Z,100950.37
2019-03-22T01:26:12.541Z,100951.09
2019-03-22T01:28:42.626Z,100943.41
2019-03-22T01:31:12.657Z,100947.70
2019-03-22T01:33:42.635Z,100953.93
2019-03-22T01:36:12.651Z,100957.70
2019-03-22T01:38:42.681Z,100951.34
2019-03-22T01:41:12.868Z,100951.09
2019-03-22T01:43:42.785Z,100956.56
2019-03-22T01:46:12.802Z,100951.79
2019-03-22T01:48:42.826Z,100951.75
2019-03-22T01:51:12.745Z,100953.52
2019-03-22T01:53:42.715Z,100944.38
2019-03-22T01:56:12.743Z,100942.27
2019-03-22T01:58:42.657Z,100949.85
2019-03-22T02:01:12.732Z,100950.60
2019-03-22T02:03:42.760Z,100949.80
2019-03-22T02:06:12.668Z,100940.98
2019-03-22T02:08:42.623Z,100943.55
2019-03-22T02:11:12.648Z,100946.59
2019-03-22T02:13:42.677Z,100952.37
2019-03-22T02:16:12.627Z,100952.66
2019-03-22T02:18:42.559Z,100950.02
2019-03-22T02:21:12.586Z,100948.01
2019-03-22T02:23:42.618Z,100947.78
2019-03-22T02:26:12.534Z,100953.62
2019-03-22T02:28:42.496Z,100947.11
2019-03-22T02:31:12.545Z,100948.64
2019-03-22T02:33:42.580Z,100957.45
2019-03-22T02:36:12.590Z,100957.59
2019-03-22T02:38:42.634Z,100966.73
2019-03-22T02:41:12.541Z,100966.73
2019-03-22T02:43:42.660Z,100969.81
2019-03-22T02:46:12.689Z,100968.95
2019-03-22T02:48:42.729Z,100972.11
2019-03-22T02:51:12.691Z,100972.00
2019-03-22T02:53:42.620Z,100962.56
2019-03-22T02:56:12.757Z,100957.82
2019-03-22T02:58:42.880Z,100958.87
2019-03-22T03:01:12.786Z,100963.38
2019-03-22T03:03:42.700Z,100961.97
2019-03-22T03:06:12.767Z,100960.58
2019-03-22T03:08:42.894Z,100960.51
2019-03-22T03:11:12.817Z,100956.08
2019-03-22T03:13:42.779Z,100950.78
2019-03-22T03:16:12.792Z,100949.39
2019-03-22T03:18:42.709Z,100951.08
2019-03-22T03:21:12.829Z,100944.99
2019-03-22T03:23:42.849Z,100948.00
2019-03-22T03:26:12.764Z,100951.64
2019-03-22T03:28:42.745Z,100955.55
2019-03-22T03:31:12.773Z,100961.03
2019-03-22T03:33:42.804Z,100956.22
2019-03-22T03:36:12.937Z,100955.84
2019-03-22T03:38:42.864Z,100954.34
2019-03-22T03:41:12.898Z,100942.89
2019-03-22T03:43:43.427Z,100951.89
2019-03-22T03:46:13.349Z,100948.87
2019-03-22T03:48:43.282Z,100952.37
2019-03-22T03:51:13.387Z,100958.34
2019-03-22T03:53:43.381Z,100964.23
2019-03-22T03:56:13.310Z,100965.87
2019-03-22T03:58:52.409Z,100972.19
2019-03-22T04:01:15.034Z,100971.92
2019-03-22T04:03:45.072Z,100957.35
2019-03-22T04:06:15.032Z,100967.33
2019-03-22T04:08:44.958Z,100962.02
2019-03-22T04:11:14.986Z,100964.08
2019-03-22T04:13:45.069Z,100957.59
2019-03-22T04:16:14.996Z,100966.88
2019-03-22T04:18:44.931Z,100966.27
2019-03-22T04:21:15.183Z,100967.01
2019-03-22T04:23:45.214Z,100968.11
2019-03-22T04:26:15.141Z,100965.87
2019-03-22T04:28:45.268Z,100964.98
2019-03-22T04:31:15.308Z,100962.50
2019-03-22T04:33:45.413Z,100965.48
2019-03-22T04:36:15.428Z,100962.25
2019-03-22T04:38:45.451Z,100966.61
2019-03-22T04:41:15.365Z,100967.38
2019-03-22T04:43:45.332Z,100973.47
2019-03-22T04:46:16.226Z,100968.91
2019-03-22T04:48:47.670Z,100970.64
2019-03-22T04:51:18.857Z,100968.48
2019-03-22T04:53:56.605Z,100976.68
2019-03-22T04:56:27.180Z,100975.67
2019-03-22T04:58:58.512Z,100980.86
2019-03-22T05:01:29.638Z,100980.98
2019-03-22T05:04:00.621Z,100984.16
2019-03-22T05:06:33.461Z,100993.11
2019-03-22T05:09:04.952Z,100988.70
2019-03-22T05:11:35.376Z,100989.03
2019-03-22T05:14:06.935Z,100995.12
2019-03-22T05:16:39.959Z,100995.58
2019-03-22T05:19:11.970Z,100993.69
2019-03-22T05:21:42.806Z,100995.05
2019-03-22T05:24:14.923Z,100996.56
2019-03-22T05:26:46.762Z,100996.48
2019-03-22T05:29:29.934Z,100989.66
2019-03-22T05:32:13.839Z,100989.95
2019-03-22T05:34:44.906Z,100992.80
2019-03-22T05:37:14.826Z,100990.45
2019-03-22T05:39:45.359Z,100996.51
2019-03-22T05:42:15.380Z,100999.02
2019-03-22T05:44:45.414Z,100997.24
2019-03-22T05:47:15.385Z,101000.20
2019-03-22T05:49:45.311Z,101000.25
2019-03-22T05:52:15.355Z,101002.87
2019-03-22T05:54:45.448Z,100997.77
2019-03-22T05:57:15.377Z,101009.22
2019-03-22T05:59:45.470Z,101005.24
2019-03-22T06:02:15.527Z,101001.24
2019-03-22T06:04:45.460Z,100997.86
2019-03-22T06:07:15.491Z,100993.78
2019-03-22T06:09:45.579Z,100997.53
2019-03-22T06:12:15.516Z,100991.64
2019-03-22T06:14:45.450Z,100982.13
2019-03-22T06:17:15.539Z,100975.98
2019-03-22T06:19:45.590Z,100979.45
2019-03-22T06:22:15.521Z,100984.76
2019-03-22T06:24:45.492Z,100983.59
2019-03-22T06:27:15.534Z,100984.56
2019-03-22T06:29:54.039Z,100983.55
2019-03-22T06:32:17.299Z,100984.56
2019-03-22T06:34:47.225Z,100981.50
2019-03-22T06:37:17.310Z,100981.80
2019-03-22T06:39:47.436Z,100976.88
2019-03-22T06:42:17.487Z,100979.27
2019-03-22T06:44:47.541Z,100979.87
2019-03-22T06:47:19.092Z,100974.86
2019-03-22T06:49:49.011Z,100974.25
2019-03-22T06:52:19.093Z,100974.05
2019-03-22T06:54:49.150Z,100970.63
2019-03-22T06:57:19.078Z,100974.83
2019-03-22T06:59:49.036Z,100972.02
2019-03-22T07:02:19.279Z,100965.66
2019-03-22T07:04:49.310Z,100962.46
2019-03-22T07:07:19.236Z,100963.77
2019-03-22T07:09:49.263Z,100969.14
2019-03-22T07:12:19.299Z,100966.42
2019-03-22T07:14:49.342Z,100968.31
2019-03-22T07:17:19.313Z,100970.75
2019-03-22T07:19:49.459Z,100970.92
2019-03-22T07:22:19.373Z,100961.05
2019-03-22T07:24:49.457Z,100962.56
2019-03-22T07:27:19.505Z,100961.20
2019-03-22T07:29:49.595Z,100958.67
2019-03-22T07:32:19.719Z,100951.31
2019-03-22T07:34:49.681Z,100953.43
2019-03-22T07:37:19.730Z,100950.94
2019-03-22T07:39:50.083Z,100954.06
2019-03-22T07:42:20.005Z,100948.39
2019-03-22T07:44:49.954Z,100945.29
2019-03-22T07:47:20.037Z,100945.41
2019-03-22T07:49:50.158Z,100939.67
2019-03-22T07:52:20.077Z,100943.45
2019-03-22T07:54:50.052Z,100942.33
2019-03-22T07:57:20.116Z,100940.42
2019-03-22T07:59:50.030Z,100938.23
2019-03-22T08:02:20.101Z,100937.10
2019-03-22T08:04:51.228Z,100934.73
2019-03-22T08:07:21.214Z,100927.97
2019-03-22T08:09:51.495Z,100932.30
2019-03-22T08:12:21.622Z,100931.08
2019-03-22T08:14:51.646Z,100925.45
2019-03-22T08:17:22.075Z,100918.66
2019-03-22T08:19:52.003Z,100920.25
2019-03-22T08:22:22.067Z,100923.23
2019-03-22T08:24:52.247Z,100917.17
2019-03-22T08:27:22.281Z,100922.84
2019-03-22T08:29:52.169Z,100921.45
2019-03-22T08:32:22.285Z,100912.58
2019-03-22T08:34:52.358Z,100911.42
2019-03-22T08:37:22.482Z,100903.30
2019-03-22T08:39:52.559Z,100904.95
2019-03-22T08:42:22.498Z,100908.58
2019-03-22T08:44:52.459Z,100902.41
2019-03-22T08:47:33.262Z,100893.05
2019-03-22T08:49:54.432Z,100891.68
2019-03-22T08:52:24.363Z,100891.52
2019-03-22T08:54:54.533Z,100885.28
2019-03-22T08:57:25.120Z,100885.40
2019-03-22T08:59:55.465Z,100877.73
2019-03-22T09:02:25.469Z,100881.02
2019-03-22T09:04:55.482Z,100873.24
2019-03-22T09:07:25.637Z,100868.89
2019-03-22T09:09:55.904Z,100867.06
2019-03-22T09:12:26.996Z,100861.95
2019-03-22T09:14:57.149Z,100852.91
2019-03-22T09:17:27.215Z,100852.02
2019-03-22T09:19:57.281Z,100846.79
2019-03-22T09:22:27.275Z,100842.67
2019-03-22T09:24:57.519Z,100841.73
2019-03-22T09:27:27.555Z,100835.14
2019-03-22T09:29:57.568Z,100837.11
2019-03-22T09:32:27.730Z,100839.39
2019-03-22T09:34:59.822Z,100833.21
2019-03-22T09:37:29.560Z,100829.98
2019-03-22T09:39:59.633Z,100821.53
2019-03-22T09:42:29.588Z,100814.50
2019-03-22T09:44:59.509Z,100818.09
2019-03-22T09:47:29.646Z,100816.92
2019-03-22T09:49:59.674Z,100818.58
2019-03-22T09:52:29.620Z,100814.38
2019-03-22T09:55:12.480Z,100806.68
2019-03-22T09:57:31.356Z,100805.91
2019-03-22T10:00:01.339Z,100801.27
2019-03-22T10:02:31.396Z,100802.19
2019-03-22T10:05:01.502Z,100804.05
2019-03-22T10:07:31.621Z,100808.46
2019-03-22T10:10:01.907Z,100803.05
2019-03-22T10:12:32.755Z,100792.30
2019-03-22T10:15:06.192Z,100787.05
2019-03-22T10:17:36.174Z,100788.66
2019-03-22T10:20:06.527Z,100781.08
2019-03-22T10:22:36.616Z,100780.89
2019-03-22T10:25:07.436Z,100773.59
2019-03-22T10:27:37.403Z,100768.50
2019-03-22T10:30:07.872Z,100767.97
2019-03-22T10:32:38.244Z,100771.47
2019-03-22T10:35:08.558Z,100772.91
2019-03-22T10:37:38.772Z,100760.70
2019-03-22T10:40:09.063Z,100763.13
2019-03-22T10:42:38.972Z,100753.33
2019-03-22T10:45:09.270Z,100751.53
2019-03-22T10:47:39.358Z,100746.94
2019-03-22T10:50:09.564Z,100736.25
2019-03-22T10:52:39.487Z,100738.77
2019-03-22T10:55:28.546Z,100726.83
2019-03-22T10:57:41.550Z,100724.55
2019-03-22T11:00:14.395Z,100725.53
2019-03-22T11:02:44.348Z,100717.64
2019-03-22T11:05:14.614Z,100726.81
2019-03-22T11:07:44.721Z,100706.01
2019-03-22T11:10:14.993Z,100701.37
2019-03-22T11:12:44.947Z,100706.09
2019-03-22T11:15:15.069Z,100702.78
2019-03-22T11:17:45.158Z,100694.26
2019-03-22T11:20:15.963Z,100692.30
2019-03-22T11:22:46.041Z,100683.64
2019-03-22T11:25:16.089Z,100673.73
2019-03-22T11:27:46.042Z,100671.08
2019-03-22T11:30:17.823Z,100666.45
2019-03-22T11:32:47.985Z,100664.22
2019-03-22T11:35:18.137Z,100659.03
2019-03-22T11:37:48.096Z,100660.45
2019-03-22T11:40:18.297Z,100655.66
2019-03-22T11:42:48.332Z,100649.11
2019-03-22T11:45:20.601Z,100646.53
2019-03-22T11:47:51.782Z,100638.94
2019-03-22T11:50:21.823Z,100632.08
2019-03-22T11:52:51.986Z,100635.41
2019-03-22T11:55:22.097Z,100627.02
2019-03-22T11:57:52.020Z,100613.20
2019-03-22T12:00:23.229Z,100616.64
2019-03-22T12:02:53.376Z,100616.94
2019-03-22T12:05:24.548Z,100604.91
2019-03-22T12:07:54.676Z,100600.22
2019-03-22T12:10:24.714Z,100596.71
2019-03-22T12:12:54.773Z,100594.58
2019-03-22T12:15:25.421Z,100596.03
2019-03-22T12:17:56.508Z,100588.50
2019-03-22T12:20:26.546Z,100585.83
2019-03-22T12:22:56.626Z,100577.72
2019-03-22T12:25:27.039Z,100575.05
2019-03-22T12:27:56.967Z,100572.06
2019-03-22T12:30:27.094Z,100576.16
2019-03-22T12:32:57.144Z,100578.45
2019-03-22T12:35:27.283Z,100578.04
2019-03-22T12:37:57.820Z,100581.77
2019-03-22T12:40:27.928Z,100571.95
2019-03-22T12:42:57.934Z,100564.22
2019-03-22T12:45:28.629Z,100556.88
2019-03-22T12:47:58.773Z,100548.24
2019-03-22T12:50:28.847Z,100559.67
2019-03-22T12:52:58.826Z,100553.10
2019-03-22T12:55:28.761Z,100549.55
2019-03-22T12:57:59.576Z,100539.32
2019-03-22T13:00:29.977Z,100526.39
2019-03-22T13:03:00.517Z,100526.39
2019-03-22T13:05:30.447Z,100531.30
2019-03-22T13:08:00.551Z,100526.45
2019-03-22T13:10:31.993Z,100523.70
2019-03-22T13:13:01.945Z,100522.88
2019-03-22T13:15:31.898Z,100513.36
2019-03-22T13:18:01.937Z,100503.42
2019-03-22T13:20:31.920Z,100507.40
2019-03-22T13:23:02.038Z,100503.95
2019-03-22T13:25:32.030Z,100496.12
2019-03-22T13:28:02.003Z,100499.53
2019-03-22T13:30:38.430Z,100488.68
2019-03-22T13:33:08.477Z,100481.28
2019-03-22T13:35:38.526Z,100483.39
2019-03-22T13:38:08.671Z,100483.39
2019-03-22T13:40:38.611Z,100480.83
2019-03-22T13:43:08.665Z,100477.30
2019-03-22T13:45:38.800Z,100474.71
2019-03-22T13:48:08.774Z,100468.16
2019-03-22T13:50:38.730Z,100450.95
2019-03-22T13:53:08.954Z,100455.41
2019-03-22T13:55:39.015Z,100452.81
2019-03-22T13:58:08.955Z,100458.45
2019-03-22T14:00:39.049Z,100454.74
2019-03-22T14:03:09.014Z,100445.27
2019-03-22T14:05:38.973Z,100452.83
2019-03-22T14:08:09.317Z,100447.00
2019-03-22T14:10:39.358Z,100442.75
2019-03-22T14:13:09.317Z,100442.75
2019-03-22T14:15:39.443Z,100431.31
2019-03-22T14:18:09.499Z,100431.31
2019-03-22T14:20:39.534Z,100431.90
2019-03-22T14:23:09.660Z,100435.47
2019-03-22T14:25:39.589Z,100429.59
2019-03-22T14:28:09.638Z,100428.59
2019-03-22T14:30:39.727Z,100421.41
2019-03-22T14:33:13.514Z,100431.55
2019-03-22T14:35:41.330Z,100434.41
2019-03-22T14:38:11.461Z,100418.83
2019-03-22T14:40:41.606Z,100417.06
2019-03-22T14:43:11.578Z,100401.12
2019-03-22T14:45:41.592Z,100401.12
2019-03-22T14:48:11.832Z,100405.73
2019-03-22T14:50:41.841Z,100402.48
2019-03-22T14:53:11.862Z,100407.67
2019-03-22T14:55:41.805Z,100403.95
2019-03-22T14:58:11.903Z,100394.70
2019-03-22T15:00:42.005Z,100402.98
2019-03-22T15:03:28.218Z,100405.95
2019-03-22T15:05:58.465Z,100399.49
2019-03-22T15:08:28.510Z,100406.33
2019-03-22T15:10:58.567Z,100407.41
2019-03-22T15:13:46.208Z,100410.08
2019-03-22T15:16:27.251Z,100408.50
2019-03-22T15:19:22.450Z,100400.58
2019-03-22T15:22:09.409Z,100400.58
2019-03-22T15:24:58.574Z,100408.02
2019-03-22T15:27:47.531Z,100408.26
2019-03-22T15:30:35.174Z,100408.26
2019-03-22T15:33:34.080Z,100408.86
2019-03-22T15:36:29.850Z,100398.50
2019-03-22T15:39:19.190Z,100411.70
2019-03-22T15:41:49.505Z,100403.70
2019-03-22T15:44:19.482Z,100407.55
2019-03-22T15:46:49.590Z,100402.97
2019-03-22T15:49:19.694Z,100404.03
2019-03-22T15:51:50.085Z,100403.55
2019-03-22T15:54:20.084Z,100407.77
2019-03-22T15:56:50.163Z,100408.83
2019-03-22T15:59:20.218Z,100410.27
2019-03-22T16:01:50.289Z,100416.08
2019-03-22T16:04:20.382Z,100412.66
2019-03-22T16:06:52.174Z,100407.53
2019-03-22T16:09:22.866Z,100410.67
2019-03-22T16:11:53.063Z,100406.56
2019-03-22T16:14:23.103Z,100412.63
2019-03-22T16:16:53.096Z,100408.28
2019-03-22T16:19:23.050Z,100412.84
2019-03-22T16:21:53.645Z,100416.27
2019-03-22T16:24:23.970Z,100410.93
2019-03-22T16:26:53.934Z,100410.94
2019-03-22T16:29:23.894Z,100407.69
2019-03-22T16:31:54.173Z,100408.46
2019-03-22T16:34:24.244Z,100405.02
2019-03-22T16:36:54.199Z,100406.73
2019-03-22T16:39:24.210Z,100394.17
2019-03-22T16:41:54.282Z,100396.25
2019-03-22T16:44:24.308Z,100403.88
2019-03-22T16:46:54.556Z,100401.12
2019-03-22T16:49:24.610Z,100396.55
2019-03-22T16:51:54.578Z,100401.36
2019-03-22T16:54:24.563Z,100399.94
2019-03-22T16:56:54.632Z,100400.03
2019-03-22T16:59:24.747Z,100400.77
2019-03-22T17:01:54.744Z,100403.33
2019-03-22T17:04:25.175Z,100409.67
2019-03-22T17:06:55.227Z,100405.96
2019-03-22T17:09:25.333Z,100403.61
2019-03-22T17:11:55.286Z,100406.14
2019-03-22T17:14:25.225Z,100404.91
2019-03-22T17:16:55.466Z,100402.39
2019-03-22T17:19:25.533Z,100404.38
2019-03-22T17:21:55.477Z,100408.89
2019-03-22T17:24:25.731Z,100411.89
2019-03-22T17:26:55.676Z,100412.50
2019-03-22T17:29:25.618Z,100411.82
2019-03-22T17:31:55.869Z,100411.82
2019-03-22T17:34:25.980Z,100410.58
2019-03-22T17:36:55.919Z,100407.40
2019-03-22T17:39:25.925Z,100402.20
2019-03-22T17:41:56.215Z,100403.24
2019-03-22T17:44:26.291Z,100403.91
2019-03-22T17:46:56.277Z,100407.70
2019-03-22T17:49:26.219Z,100408.88
2019-03-22T17:51:56.307Z,100409.06
2019-03-22T17:54:26.408Z,100407.73
2019-03-22T17:56:56.458Z,100405.08
2019-03-22T17:59:26.414Z,100410.03
2019-03-22T18:01:56.519Z,100409.47
2019-03-22T18:04:26.493Z,100412.33
2019-03-22T18:06:56.597Z,100413.06
2019-03-22T18:09:26.732Z,100414.23
2019-03-22T18:11:56.679Z,100421.33
2019-03-22T18:14:27.080Z,100416.27
2019-03-22T18:16:57.283Z,100421.59
2019-03-22T18:19:27.343Z,100418.80
2019-03-22T18:21:57.351Z,100423.70
2019-03-22T18:24:27.337Z,100422.93
2019-03-22T18:26:57.396Z,100418.91
2019-03-22T18:29:27.447Z,100422.93
2019-03-22T18:31:57.438Z,100419.50
2019-03-22T18:34:34.357Z,100417.32
2019-03-22T18:36:59.176Z,100422.16
2019-03-22T18:39:29.999Z,100423.58
2019-03-22T18:41:59.979Z,100419.84
2019-03-22T18:44:30.035Z,100421.47
2019-03-22T18:47:00.028Z,100421.55
2019-03-22T18:49:29.990Z,100424.30
2019-03-22T18:52:00.085Z,100422.50
2019-03-22T18:54:30.192Z,100422.78
2019-03-22T18:57:00.187Z,100424.64
2019-03-22T18:59:30.160Z,100427.45
2019-03-22T19:02:01.279Z,100428.55
2019-03-22T19:04:32.040Z,100428.06
2019-03-22T19:07:01.989Z,100428.06
2019-03-22T19:09:32.025Z,100430.41
2019-03-22T19:12:02.083Z,100428.69
2019-03-22T19:14:32.146Z,100430.09
2019-03-22T19:17:02.147Z,100425.92
2019-03-22T19:19:32.095Z,100428.27
2019-03-22T19:22:02.153Z,100420.66
2019-03-22T19:24:32.127Z,100429.98
2019-03-22T19:27:02.238Z,100422.45
2019-03-22T19:29:32.314Z,100427.09
2019-03-22T19:32:02.467Z,100428.26
2019-03-22T19:34:32.430Z,100428.41
2019-03-22T19:37:02.465Z,100433.25
2019-03-22T19:39:32.563Z,100430.23
2019-03-22T19:42:02.510Z,100425.59
2019-03-22T19:44:32.459Z,100423.02
2019-03-22T19:47:02.704Z,100429.49
2019-03-22T19:49:32.752Z,100427.63
2019-03-22T19:52:02.693Z,100433.51
2019-03-22T19:54:32.850Z,100428.60
2019-03-22T19:57:03.204Z,100426.19
2019-03-22T19:59:33.267Z,100428.70
2019-03-22T20:02:03.256Z,100435.22
2019-03-22T20:04:34.220Z,100431.50
2019-03-22T20:07:04.270Z,100430.31
2019-03-22T20:09:35.115Z,100432.75
2019-03-22T20:12:05.149Z,100430.64
2019-03-22T20:14:36.288Z,100428.31
2019-03-22T20:17:06.491Z,100430.70
2019-03-22T20:19:36.575Z,100431.92
2019-03-22T20:22:06.526Z,100430.02
2019-03-22T20:24:36.518Z,100432.12
2019-03-22T20:27:06.522Z,100440.23
2019-03-22T20:29:36.574Z,100437.94
2019-03-22T20:32:06.558Z,100439.63
2019-03-22T20:34:36.846Z,100440.07
2019-03-22T20:37:06.904Z,100438.91
2019-03-22T20:39:36.999Z,100442.16
2019-03-22T20:42:06.945Z,100443.15
2019-03-22T20:44:37.272Z,100445.66
2019-03-22T20:47:07.306Z,100446.13
2019-03-22T20:49:37.254Z,100442.75
2019-03-22T20:52:07.342Z,100445.49
2019-03-22T20:54:37.563Z,100449.23
2019-03-22T20:57:07.532Z,100446.98
2019-03-22T20:59:37.502Z,100447.97
2019-03-22T21:02:07.602Z,100445.52
2019-03-22T21:04:37.650Z,100442.62
2019-03-22T21:07:07.659Z,100446.38
2019-03-22T21:09:37.696Z,100450.22
2019-03-22T21:12:07.688Z,100447.34
2019-03-22T21:14:37.755Z,100446.22
2019-03-22T21:17:07.837Z,100443.94
2019-03-22T21:19:37.820Z,100442.91
2019-03-22T21:22:07.888Z,100455.56
2019-03-22T21:24:37.900Z,100449.16
2019-03-22T21:27:15.595Z,100456.47
2019-03-22T21:29:44.082Z,100461.66
2019-03-22T21:32:11.454Z,100456.77
2019-03-22T21:34:43.870Z,100457.33
2019-03-22T21:37:13.167Z,100460.28
2019-03-22T21:39:43.426Z,100458.45
2019-03-22T21:42:13.423Z,100462.04
2019-03-22T21:44:43.361Z,100465.52
2019-03-22T21:47:13.417Z,100466.12
2019-03-22T21:49:43.517Z,100466.86
2019-03-22T21:52:13.495Z,100462.04
2019-03-22T21:54:43.446Z,100453.44
2019-03-22T21:57:13.551Z,100463.41
2019-03-22T21:59:43.595Z,100463.39
2019-03-22T22:02:13.547Z,100459.20
2019-03-22T22:04:43.778Z,100456.83
2019-03-22T22:07:13.723Z,100453.50
2019-03-22T22:09:43.671Z,100455.34
2019-03-22T22:12:13.824Z,100455.53
2019-03-22T22:14:43.875Z,100458.00
2019-03-22T22:17:13.825Z,100457.45
2019-03-22T22:19:44.321Z,100456.32
2019-03-22T22:22:14.360Z,100453.86
2019-03-22T22:24:44.397Z,100455.58
2019-03-22T22:27:14.478Z,100451.51
2019-03-22T22:29:44.465Z,100450.36
2019-03-22T22:32:14.481Z,100456.11
2019-03-22T22:34:44.793Z,100459.19
2019-03-22T22:37:14.742Z,100466.58
2019-03-22T22:39:44.692Z,100457.70
2019-03-22T22:42:14.768Z,100457.89
2019-03-22T22:44:44.781Z,100466.83
2019-03-22T22:47:14.847Z,100464.70
2019-03-22T22:49:44.929Z,100467.47
2019-03-22T22:52:14.868Z,100465.18
2019-03-22T22:54:44.801Z,100465.40
2019-03-22T22:57:14.911Z,100464.77
2019-03-22T22:59:44.992Z,100467.97
2019-03-22T23:02:14.936Z,100470.43
2019-03-22T23:04:44.947Z,100475.52
2019-03-22T23:07:15.089Z,100473.97
2019-03-22T23:09:45.136Z,100477.16
2019-03-22T23:12:15.285Z,100478.17
2019-03-22T23:14:45.220Z,100482.13
2019-03-22T23:17:15.262Z,100477.89
2019-03-22T23:19:45.355Z,100479.71
2019-03-22T23:22:15.294Z,100480.72
2019-03-22T23:24:45.339Z,100487.06
2019-03-22T23:27:15.338Z,100481.66
2019-03-22T23:29:45.270Z,100487.52
2019-03-22T23:32:15.305Z,100488.79
2019-03-22T23:34:45.569Z,100483.83
2019-03-22T23:37:15.498Z,100483.28
2019-03-22T23:39:45.425Z,100490.42
2019-03-22T23:42:15.660Z,100488.89
2019-03-22T23:44:45.842Z,100484.03
2019-03-22T23:47:15.734Z,100481.66
2019-03-22T23:49:45.713Z,100486.06
2019-03-22T23:52:15.798Z,100482.67
2019-03-22T23:54:45.866Z,100478.92
2019-03-22T23:57:15.848Z,100475.28
2019-03-22T23:59:45.818Z,100482.41
